National Weather Service Raw Text Product

Displaying AFOS PIL: TAFOTM Received: 2018-02-09 10:40 UTC


828 
FTUS43 KDMX 091040 AAB
TAFOTM
TAF AMD
KOTM 091040Z 0911/1006 02010KT 6SM -SN OVC007
     FM091400 02011G17KT 5SM -SN BKN015 OVC050
     FM092000 01011KT P6SM OVC020
     FM100000 36011KT 2SM -SN OVC011=